createdAt,value
2023-03-05T00:03:55.906Z,100633.59
2023-03-05T00:08:58.715Z,100628.28
2023-03-05T00:13:56.640Z,100629.75
2023-03-05T00:18:58.156Z,100621.31
2023-03-05T00:23:58.621Z,100624.25
2023-03-05T00:29:00.046Z,100620.84
2023-03-05T00:34:02.291Z,100618.66
2023-03-05T00:39:04.732Z,100618.81
2023-03-05T00:44:03.518Z,100624.00
2023-03-05T00:49:03.250Z,100609.97
2023-03-05T00:54:01.909Z,100609.16
2023-03-05T00:58:59.951Z,100608.88
2023-03-05T01:03:59.711Z,100612.16
2023-03-05T01:08:57.387Z,100622.25
2023-03-05T01:13:55.846Z,100612.56
2023-03-05T01:18:58.954Z,100611.84
2023-03-05T01:23:59.812Z,100607.53
2023-03-05T01:29:01.748Z,100606.00
2023-03-05T01:34:03.463Z,100597.69
2023-03-05T01:39:04.266Z,100600.22
2023-03-05T01:44:05.657Z,100595.38
2023-03-05T01:49:09.506Z,100592.34
2023-03-05T01:54:08.427Z,100598.91
2023-03-05T01:59:08.731Z,100603.53
2023-03-05T02:04:09.105Z,100595.50
2023-03-05T02:09:12.799Z,100594.81
2023-03-05T02:14:16.123Z,100593.44
2023-03-05T02:19:16.956Z,100601.22
2023-03-05T02:24:21.263Z,100589.22
2023-03-05T02:29:21.304Z,100594.81
2023-03-05T02:34:18.567Z,100602.72
2023-03-05T02:39:17.234Z,100606.66
2023-03-05T02:44:15.902Z,100619.38
2023-03-05T02:49:18.171Z,100615.16
2023-03-05T02:54:16.493Z,100611.75
2023-03-05T02:59:17.179Z,100610.25
2023-03-05T03:04:16.575Z,100611.63
2023-03-05T03:09:17.069Z,100611.34
2023-03-05T03:14:20.084Z,100609.44
2023-03-05T03:19:20.279Z,100617.75
2023-03-05T03:24:19.873Z,100601.78
2023-03-05T03:29:18.994Z,100601.63
2023-03-05T03:34:17.079Z,100602.00
2023-03-05T03:39:16.682Z,100596.00
2023-03-05T03:44:14.710Z,100609.16
2023-03-05T03:49:16.370Z,100609.13
2023-03-05T03:54:15.078Z,100608.28
2023-03-05T03:59:14.196Z,100610.03
2023-03-05T04:04:15.552Z,100607.34
2023-03-05T04:09:17.122Z,100604.59
2023-03-05T04:14:19.152Z,100604.28
2023-03-05T04:19:19.415Z,100603.22
2023-03-05T04:24:20.070Z,100593.16
2023-03-05T04:29:21.767Z,100606.63
2023-03-05T04:34:22.227Z,100597.53
2023-03-05T04:39:22.993Z,100594.63
2023-03-05T04:44:23.404Z,100612.06
2023-03-05T04:49:23.743Z,100608.13
2023-03-05T04:54:24.388Z,100612.63
2023-03-05T04:59:25.831Z,100609.94
2023-03-05T05:04:26.535Z,100613.13
2023-03-05T05:09:28.262Z,100616.44
2023-03-05T05:14:26.729Z,100611.00
2023-03-05T05:19:26.155Z,100619.59
2023-03-05T05:24:24.022Z,100636.91
2023-03-05T05:29:23.766Z,100635.69
2023-03-05T05:34:21.335Z,100642.19
2023-03-05T05:39:21.282Z,100659.81
2023-03-05T05:44:18.706Z,100658.66
2023-03-05T05:49:16.892Z,100663.38
2023-03-05T05:54:15.567Z,100674.28
2023-03-05T05:59:15.936Z,100670.63
2023-03-05T06:04:16.884Z,100672.88
2023-03-05T06:09:17.346Z,100675.72
2023-03-05T06:14:17.662Z,100681.88
2023-03-05T06:19:15.821Z,100678.75
2023-03-05T06:24:14.207Z,100683.78
2023-03-05T06:29:34.455Z,100695.53
2023-03-05T06:34:32.682Z,100687.94
2023-03-05T06:39:34.670Z,100695.16
2023-03-05T06:44:32.973Z,100696.22
2023-03-05T06:49:33.422Z,100695.00
2023-03-05T06:54:33.161Z,100690.91
2023-03-05T06:59:31.864Z,100693.22
2023-03-05T07:04:30.145Z,100695.28
2023-03-05T07:09:31.770Z,100686.94
2023-03-05T07:14:30.081Z,100686.41
2023-03-05T07:19:29.622Z,100689.00
2023-03-05T07:24:31.677Z,100695.09
2023-03-05T07:29:31.865Z,100695.94
2023-03-05T07:34:32.459Z,100698.09
2023-03-05T07:39:32.357Z,100688.53
2023-03-05T07:44:30.307Z,100690.16
2023-03-05T07:49:28.122Z,100696.44
2023-03-05T07:54:26.439Z,100691.09
2023-03-05T07:59:26.491Z,100696.13
2023-03-05T08:04:24.078Z,100686.81
2023-03-05T08:09:22.099Z,100698.88
2023-03-05T08:14:20.279Z,100677.56
2023-03-05T08:19:21.512Z,100679.97
2023-03-05T08:24:30.088Z,100672.16
2023-03-05T08:29:33.012Z,100670.59
2023-03-05T08:34:32.171Z,100658.19
2023-03-05T08:39:36.596Z,100653.78
2023-03-05T08:44:37.445Z,100659.75
2023-03-05T08:49:37.961Z,100645.44
2023-03-05T08:54:40.031Z,100645.72
2023-03-05T08:59:40.804Z,100633.44
2023-03-05T09:04:40.717Z,100628.44
2023-03-05T09:09:41.688Z,100624.44
2023-03-05T09:14:41.330Z,100606.28
2023-03-05T09:19:45.610Z,100612.84
2023-03-05T09:24:44.250Z,100608.50
2023-03-05T09:29:45.687Z,100599.78
2023-03-05T09:34:45.887Z,100589.25
2023-03-05T09:39:48.156Z,100586.50
2023-03-05T09:44:45.521Z,100573.72
2023-03-05T09:49:45.865Z,100572.59
2023-03-05T09:54:50.036Z,100560.41
2023-03-05T10:00:09.171Z,100552.44
2023-03-05T10:05:35.278Z,100544.94
2023-03-05T10:10:37.799Z,100545.25
2023-03-05T10:15:52.366Z,100532.03
2023-03-05T10:21:05.668Z,100526.50
2023-03-05T10:26:06.173Z,100519.78
2023-03-05T10:31:09.993Z,100511.97
2023-03-05T10:36:08.724Z,100503.81
2023-03-05T10:41:17.715Z,100500.06
2023-03-05T10:46:18.023Z,100489.13
2023-03-05T10:51:19.642Z,100478.91
2023-03-05T10:56:17.953Z,100475.16
2023-03-05T11:01:15.800Z,100473.41
2023-03-05T11:06:14.280Z,100472.66
2023-03-05T11:11:18.826Z,100455.44
2023-03-05T11:16:20.878Z,100448.00
2023-03-05T11:21:19.992Z,100445.34
2023-03-05T11:26:22.555Z,100444.13
2023-03-05T11:31:25.964Z,100439.94
2023-03-05T11:36:41.759Z,100432.19
2023-03-05T11:41:42.340Z,100430.69
2023-03-05T11:46:42.196Z,100417.50
2023-03-05T11:51:59.050Z,100407.69
2023-03-05T11:56:58.278Z,100404.44
2023-03-05T12:01:56.238Z,100390.47
2023-03-05T12:06:57.510Z,100391.47
2023-03-05T12:12:01.129Z,100375.78
2023-03-05T12:17:07.955Z,100366.66
2023-03-05T12:22:14.871Z,100362.97
2023-03-05T12:27:15.411Z,100353.41
2023-03-05T12:32:23.493Z,100354.56
2023-03-05T12:37:21.876Z,100349.47
2023-03-05T12:42:28.404Z,100340.63
2023-03-05T12:47:27.101Z,100337.47
2023-03-05T12:52:29.272Z,100334.97
2023-03-05T12:57:30.178Z,100332.53
2023-03-05T13:02:32.902Z,100331.44
2023-03-05T13:07:30.456Z,100328.00
2023-03-05T13:12:31.166Z,100319.09
2023-03-05T13:17:44.567Z,100332.97
2023-03-05T13:22:42.662Z,100334.53
2023-03-05T13:27:41.696Z,100331.84
2023-03-05T13:32:42.388Z,100333.31
2023-03-05T13:37:42.751Z,100328.00
2023-03-05T13:42:40.872Z,100333.34
2023-03-05T13:47:38.878Z,100329.22
2023-03-05T13:52:38.249Z,100323.59
2023-03-05T13:57:40.773Z,100329.69
2023-03-05T14:02:44.418Z,100326.50
2023-03-05T14:07:42.057Z,100321.69
2023-03-05T14:12:42.527Z,100316.03
2023-03-05T14:17:41.863Z,100311.41
2023-03-05T14:22:43.543Z,100307.38
2023-03-05T14:27:43.927Z,100294.41
2023-03-05T14:32:44.395Z,100296.78
2023-03-05T14:37:45.945Z,100282.06
2023-03-05T14:42:45.002Z,100282.63
2023-03-05T14:47:43.866Z,100292.22
2023-03-05T14:52:42.445Z,100286.13
2023-03-05T14:57:40.895Z,100277.31
2023-03-05T15:02:39.385Z,100285.00
2023-03-05T15:07:40.362Z,100284.50
2023-03-05T15:12:39.441Z,100282.75
2023-03-05T15:17:37.392Z,100273.22
2023-03-05T15:22:35.693Z,100276.63
2023-03-05T15:27:33.419Z,100279.56
2023-03-05T15:32:31.566Z,100280.69
2023-03-05T15:37:29.171Z,100283.56
2023-03-05T15:42:29.548Z,100281.22
2023-03-05T15:47:33.379Z,100275.53
2023-03-05T15:52:31.194Z,100276.69
2023-03-05T15:57:31.400Z,100281.63
2023-03-05T16:02:31.849Z,100280.47
2023-03-05T16:07:30.064Z,100278.63
2023-03-05T16:12:29.461Z,100281.16
2023-03-05T16:17:30.005Z,100281.28
2023-03-05T16:22:28.214Z,100276.59
2023-03-05T16:27:29.018Z,100275.84
2023-03-05T16:32:28.090Z,100271.66
2023-03-05T16:37:29.790Z,100285.50
2023-03-05T16:42:35.992Z,100288.78
2023-03-05T16:47:46.193Z,100291.81
2023-03-05T16:52:47.657Z,100294.59
2023-03-05T16:57:47.969Z,100298.00
2023-03-05T17:02:49.156Z,100293.78
2023-03-05T17:07:46.575Z,100301.59
2023-03-05T17:12:47.555Z,100305.84
2023-03-05T17:17:45.324Z,100311.38
2023-03-05T17:22:45.194Z,100306.03
2023-03-05T17:27:43.289Z,100312.19
2023-03-05T17:32:44.573Z,100305.53
2023-03-05T17:37:44.764Z,100307.94
2023-03-05T17:42:42.862Z,100314.28
2023-03-05T17:47:40.796Z,100320.34
2023-03-05T17:52:40.544Z,100333.19
2023-03-05T17:57:41.589Z,100333.06
2023-03-05T18:02:38.885Z,100343.41
2023-03-05T18:07:38.139Z,100347.13
2023-03-05T18:12:36.751Z,100356.59
2023-03-05T18:17:38.068Z,100355.28
2023-03-05T18:22:36.108Z,100358.03
2023-03-05T18:27:36.807Z,100366.47
2023-03-05T18:32:35.343Z,100354.38
2023-03-05T18:37:33.795Z,100368.78
2023-03-05T18:42:35.014Z,100379.97
2023-03-05T18:47:33.997Z,100372.69
2023-03-05T18:52:32.589Z,100382.53
2023-03-05T18:57:33.701Z,100381.03
2023-03-05T19:02:34.636Z,100400.34
2023-03-05T19:07:37.983Z,100400.13
2023-03-05T19:12:38.984Z,100399.75
2023-03-05T19:17:46.028Z,100407.41
2023-03-05T19:22:44.870Z,100413.81
2023-03-05T19:27:44.672Z,100419.19
2023-03-05T19:32:52.702Z,100425.81
2023-03-05T19:37:55.158Z,100432.13
2023-03-05T19:42:54.777Z,100438.13
2023-03-05T19:47:54.478Z,100439.91
2023-03-05T19:52:52.110Z,100447.66
2023-03-05T19:57:52.210Z,100450.41
2023-03-05T20:02:55.858Z,100454.06
2023-03-05T20:08:04.773Z,100459.66
2023-03-05T20:13:03.379Z,100461.44
2023-03-05T20:18:02.534Z,100464.72
2023-03-05T20:23:05.024Z,100471.91
2023-03-05T20:28:03.734Z,100476.50
2023-03-05T20:33:01.567Z,100477.88
2023-03-05T20:38:33.626Z,100481.03
2023-03-05T20:43:32.740Z,100474.03
2023-03-05T20:48:31.135Z,100482.19
2023-03-05T20:53:31.392Z,100479.59
2023-03-05T20:58:33.114Z,100479.63
2023-03-05T21:03:33.811Z,100478.13
2023-03-05T21:08:31.829Z,100488.72
2023-03-05T21:13:33.537Z,100484.41
2023-03-05T21:18:34.339Z,100485.66
2023-03-05T21:23:32.174Z,100496.50
2023-03-05T21:28:33.219Z,100492.72
2023-03-05T21:33:30.947Z,100487.22
2023-03-05T21:38:43.778Z,100484.03
2023-03-05T21:43:44.758Z,100493.13
2023-03-05T21:48:45.249Z,100489.53
2023-03-05T21:53:50.684Z,100494.16
2023-03-05T21:58:51.301Z,100494.19
2023-03-05T22:03:52.234Z,100487.13
2023-03-05T22:08:49.928Z,100483.06
2023-03-05T22:13:47.798Z,100495.75
2023-03-05T22:18:48.482Z,100498.75
2023-03-05T22:23:49.412Z,100495.34
2023-03-05T22:28:47.772Z,100496.81
2023-03-05T22:33:48.419Z,100491.78
2023-03-05T22:38:46.982Z,100482.50
2023-03-05T22:43:48.141Z,100485.19
2023-03-05T22:48:47.882Z,100483.00
2023-03-05T22:53:46.798Z,100491.34
2023-03-05T22:58:44.946Z,100484.13
2023-03-05T23:04:15.496Z,100482.09
2023-03-05T23:09:29.778Z,100483.59
2023-03-05T23:14:29.957Z,100476.09
2023-03-05T23:19:27.949Z,100480.41
2023-03-05T23:24:25.585Z,100471.53
2023-03-05T23:30:05.551Z,100470.31
2023-03-05T23:35:11.742Z,100469.59
2023-03-05T23:40:14.740Z,100465.06
2023-03-05T23:45:17.042Z,100461.06
2023-03-05T23:50:16.530Z,100456.53
2023-03-05T23:55:21.597Z,100456.16
